FOLSOM LAKE (FOL)

Elevation: 466' · AMERICAN R basin · Operator: US Bureau of Reclamation

Provisional data, subject to change.
Query executed Tuesday at 21:13:19   clock

Select a sensor type for a plot of data.
Note: Reservoir Flows are daily averages.

Earlier

Date RES ELE    STORAGE    RES CHG    TOC STO    ABV TOC    OUTFLOW    INFLOW    EVAP    FNF    RIV REL    PPT INC    SPILL    DC PUMP    DIS PWR   
 FEET   AF   AF   AF   AF   CFS   CFS   CFS   CFS   CFS   INCHES   CFS   CFS   CFS  
07/06/2015 404.69 411435 -4931 977000 -565565 3072 657 71 48 e 0 0.00 0 33 3039
07/07/2015 403.87 405706 -5729 977000 -571294 3217 409 80 48 e 0 0.00 0 32 3185
07/08/2015 403.03 399894 -5812 977000 -577106 3165 307 72 -45 e 0 0.00 0 34 3131
07/09/2015 402.28 394762 -5132 977000 -582238 2964 425 48 -45 e 0 0.00 0 33 2931
07/10/2015 401.48 389332 -5430 977000 -- 3274 586 50 -45 e 0 0.00 0 31 3243
07/11/2015 400.76 384485 -4847 977000 -- 3196 818 66 -82 e 0 0.00 0 31 3165
07/12/2015 399.98 379278 -- 977000 -597722 3261 699 63 -82 e 0 0.00 0 32 3229
07/13/2015 399.17 373930 -5348 977000 -603070 3294 660 62 -82 e 0 0.00 0 31 3263
07/14/2015 398.25 367909 -6021 977000 -609091 3315 301 22 -82 e 0 0.00 0 33 3282
07/15/2015 397.37 362206 -5703 977000 -614794 3175 300 0 -82 e 0 0.00 0 34 3141
07/16/2015 396.62 357388 -4818 977000 -619612 2945 516 0 -107 e 0 0.00 0 31 2914
07/17/2015 395.56 350646 -6742 977000 -- 4009 680 70 -107 e 0 0.00 0 30 3979
07/18/2015 394.56 344359 -6287 977000 -- 3829 737 78 -107 e 0 0.00 0 36 3793
07/19/2015 393.62 338516 -5843 977000 -638484 3765 879 60 -107 e 0 0.00 0 142 3623
07/20/2015 392.62 332371 -6145 977000 -644629 3763 763 98 -107 e 0 0.00 0 35 3728
07/21/2015 391.59 326119 -6252 977000 -650881 3565 483 70 -99 e 0 0.00 0 35 3530
07/22/2015 390.63 320362 -5757 977000 -656638 3131 300 71 -99 e 0 0.00 0 37 3094
07/23/2015 389.86 315790 -4572 977000 -661210 2757 509 57 -99 e 0 0.00 0 34 2723
07/24/2015 389.18 311792 -3998 977000 -- 2474 514 56 -99 e 0 0.00 0 33 2441
07/25/2015 388.58 308296 -3496 977000 -- 2524 825 64 -99 e 0 0.00 0 35 2489
07/26/2015 387.94 304585 -3711 977000 -672415 2677 867 61 -99 e 0 0.00 0 153 2524
07/27/2015 387.29 300860 -3725 977000 -676140 2535 721 64 121 0 0.00 0 32 2503
07/28/2015 386.57 296765 -4095 977000 -680235 2412 413 66 -181 0 0.00 0 35 2377
07/29/2015 385.91 293037 -3728 977000 -683963 2339 530 71 -464 0 0.00 0 36 2303
07/30/2015 385.29 289575 -3462 977000 -687425 2507 834 72 -206 0 0.00 0 32 2475
07/31/2015 384.62 285860 -3715 977000 -- 2652 830 51 36 0 0.00 0 31 2621
08/01/2015 383.95 282170 -3690 977000 -- 2691 889 58 6 0 0.00 0 32 2659
08/02/2015 383.26 278415 -3755 977000 -- 2638 795 50 -96 0 0.00 0 34 2604
08/03/2015 382.54 274529 -3886 977000 -702471 2672 770 57 -- 0 0.00 0 34 2638
08/04/2015 -- -- -- -- -- -- -- -- -- -- -- -- -- --

Later | Latest

Warning! This data is preliminary and subject to revision.

Show FOL Map | Plot FOL Data | 1 Month FOL Data | Real-Time FOL Data | FOL Info